createdAt,value
2018-09-24T00:02:12.489Z,8.92
2018-09-24T00:04:41.923Z,8.95
2018-09-24T00:07:10.989Z,8.96
2018-09-24T00:09:39.796Z,8.97
2018-09-24T00:12:08.853Z,9.00
2018-09-24T00:14:37.669Z,9.00
2018-09-24T00:17:07.080Z,9.02
2018-09-24T00:19:35.952Z,9.04
2018-09-24T00:22:05.348Z,9.05
2018-09-24T00:24:41.025Z,9.03
2018-09-24T00:27:10.379Z,9.03
2018-09-24T00:29:39.196Z,9.00
2018-09-24T00:32:08.334Z,8.97
2018-09-24T00:34:37.933Z,8.93
2018-09-24T00:37:08.121Z,8.89
2018-09-24T00:39:38.255Z,8.89
2018-09-24T00:42:08.388Z,8.89
2018-09-24T00:44:38.565Z,8.90
2018-09-24T00:47:08.544Z,8.91
2018-09-24T00:49:38.394Z,8.90
2018-09-24T00:52:07.482Z,8.86
2018-09-24T00:54:36.638Z,8.91
2018-09-24T00:57:05.726Z,8.99
2018-09-24T00:59:34.602Z,8.99
2018-09-24T01:02:03.986Z,8.99
2018-09-24T01:04:33.985Z,8.98
2018-09-24T01:07:02.941Z,8.97
2018-09-24T01:09:32.041Z,8.93
2018-09-24T01:12:01.769Z,8.91
2018-09-24T01:14:30.697Z,8.87
2018-09-24T01:16:59.871Z,8.85
2018-09-24T01:19:29.258Z,8.81
2018-09-24T01:21:58.856Z,8.78
2018-09-24T01:24:27.969Z,8.70
2018-09-24T01:26:56.969Z,8.70
2018-09-24T01:29:26.464Z,8.67
2018-09-24T01:31:55.671Z,8.65
2018-09-24T01:34:24.475Z,8.64
2018-09-24T01:36:53.541Z,8.62
2018-09-24T01:39:22.814Z,8.59
2018-09-24T01:41:51.601Z,8.58
2018-09-24T01:44:20.945Z,8.57
2018-09-24T01:46:49.955Z,8.53
2018-09-24T01:49:18.832Z,8.54
2018-09-24T01:51:48.393Z,8.51
2018-09-24T01:54:17.804Z,8.49
2018-09-24T01:56:46.927Z,8.48
2018-09-24T01:59:15.795Z,8.47
2018-09-24T02:01:48.054Z,8.46
2018-09-24T02:04:17.838Z,8.44
2018-09-24T02:06:47.027Z,8.41
2018-09-24T02:09:16.205Z,8.39
2018-09-24T02:11:45.497Z,8.36
2018-09-24T02:14:14.307Z,8.34
2018-09-24T02:16:43.379Z,8.27
2018-09-24T02:19:12.209Z,8.25
2018-09-24T02:21:41.662Z,8.26
2018-09-24T02:24:10.525Z,8.29
2018-09-24T02:26:39.883Z,8.25
2018-09-24T02:29:09.283Z,8.24
2018-09-24T02:31:40.521Z,8.22
2018-09-24T02:34:11.584Z,8.22
2018-09-24T02:36:40.576Z,8.21
2018-09-24T02:39:11.257Z,8.19
2018-09-24T02:41:40.857Z,8.18
2018-09-24T02:44:10.052Z,8.19
2018-09-24T02:46:44.722Z,8.23
2018-09-24T02:49:13.826Z,8.22
2018-09-24T02:51:43.251Z,8.23
2018-09-24T02:54:12.412Z,8.26
2018-09-24T02:56:47.523Z,8.25
2018-09-24T02:59:16.386Z,8.21
2018-09-24T03:01:45.170Z,8.21
2018-09-24T03:04:14.022Z,8.19
2018-09-24T03:06:42.805Z,8.16
2018-09-24T03:09:16.977Z,8.14
2018-09-24T03:11:46.058Z,8.13
2018-09-24T03:14:15.056Z,8.15
2018-09-24T03:16:43.848Z,8.12
2018-09-24T03:19:13.597Z,8.12
2018-09-24T03:21:43.051Z,8.14
2018-09-24T03:24:12.173Z,8.14
2018-09-24T03:26:42.592Z,8.15
2018-09-24T03:29:18.996Z,8.15
2018-09-24T03:31:48.910Z,8.15
2018-09-24T03:34:19.007Z,8.19
2018-09-24T03:36:49.090Z,8.13
2018-09-24T03:39:18.029Z,8.12
2018-09-24T03:41:47.068Z,8.15
2018-09-24T03:44:15.861Z,8.18
2018-09-24T03:46:44.691Z,8.21
2018-09-24T03:49:13.644Z,8.22
2018-09-24T03:51:42.471Z,8.23
2018-09-24T03:54:12.098Z,8.22
2018-09-24T03:56:40.994Z,8.21
2018-09-24T03:59:10.032Z,8.17
2018-09-24T04:01:39.237Z,8.16
2018-09-24T04:04:13.058Z,8.16
2018-09-24T04:06:46.982Z,8.14
2018-09-24T04:09:20.964Z,8.12
2018-09-24T04:11:55.688Z,8.12
2018-09-24T04:14:30.414Z,8.10
2018-09-24T04:17:04.787Z,8.12
2018-09-24T04:19:38.880Z,8.14
2018-09-24T04:22:12.898Z,8.13
2018-09-24T04:24:47.296Z,8.11
2018-09-24T04:27:21.270Z,8.10
2018-09-24T04:29:55.377Z,8.05
2018-09-24T04:32:29.571Z,8.03
2018-09-24T04:35:03.991Z,8.02
2018-09-24T04:37:38.258Z,8.01
2018-09-24T04:40:12.697Z,8.01
2018-09-24T04:42:46.884Z,7.98
2018-09-24T04:45:20.758Z,7.95
2018-09-24T04:47:54.517Z,7.93
2018-09-24T04:50:28.461Z,7.89
2018-09-24T04:53:02.657Z,7.88
2018-09-24T04:55:36.806Z,7.83
2018-09-24T04:58:11.278Z,7.81
2018-09-24T05:00:45.410Z,7.81
2018-09-24T05:03:19.637Z,7.79
2018-09-24T05:05:53.435Z,7.76
2018-09-24T05:08:27.404Z,7.76
2018-09-24T05:11:01.319Z,7.75
2018-09-24T05:13:35.341Z,7.71
2018-09-24T05:16:10.018Z,7.66
2018-09-24T05:18:44.079Z,7.57
2018-09-24T05:21:18.326Z,7.52
2018-09-24T05:23:52.265Z,7.51
2018-09-24T05:26:26.298Z,7.49
2018-09-24T05:29:00.654Z,7.49
2018-09-24T05:31:35.053Z,7.53
2018-09-24T05:34:09.024Z,7.59
2018-09-24T05:36:42.780Z,7.67
2018-09-24T05:39:16.719Z,7.72
2018-09-24T05:41:52.151Z,7.78
2018-09-24T05:44:26.117Z,7.83
2018-09-24T05:47:00.444Z,7.84
2018-09-24T05:49:34.699Z,7.87
2018-09-24T05:52:08.728Z,7.93
2018-09-24T05:54:42.747Z,7.95
2018-09-24T05:57:16.692Z,7.98
2018-09-24T05:59:50.718Z,7.99
2018-09-24T06:02:24.812Z,8.01
2018-09-24T06:04:58.844Z,8.04
2018-09-24T06:07:33.157Z,8.08
2018-09-24T06:10:07.373Z,8.09
2018-09-24T06:12:41.671Z,8.13
2018-09-24T06:15:15.973Z,8.15
2018-09-24T06:17:50.023Z,8.18
2018-09-24T06:20:24.191Z,8.20
2018-09-24T06:22:58.861Z,8.22
2018-09-24T06:25:33.008Z,8.26
2018-09-24T06:28:07.200Z,8.30
2018-09-24T06:30:41.245Z,8.38
2018-09-24T06:33:16.023Z,8.44
2018-09-24T06:35:50.169Z,8.53
2018-09-24T06:38:24.189Z,8.57
2018-09-24T06:40:58.469Z,8.61
2018-09-24T06:43:32.874Z,8.68
2018-09-24T06:46:06.768Z,8.75
2018-09-24T06:48:41.047Z,8.82
2018-09-24T06:51:15.615Z,8.86
2018-09-24T06:53:49.993Z,8.90
2018-09-24T06:56:23.845Z,8.93
2018-09-24T06:58:57.903Z,8.97
2018-09-24T07:01:32.089Z,8.99
2018-09-24T07:04:06.105Z,9.04
2018-09-24T07:06:40.064Z,9.09
2018-09-24T07:09:14.586Z,9.19
2018-09-24T07:11:48.592Z,9.29
2018-09-24T07:14:22.599Z,9.40
2018-09-24T07:16:56.842Z,9.47
2018-09-24T07:19:31.141Z,9.52
2018-09-24T07:22:05.991Z,9.56
2018-09-24T07:24:39.967Z,9.61
2018-09-24T07:27:13.937Z,9.65
2018-09-24T07:29:47.827Z,9.70
2018-09-24T07:32:21.755Z,9.77
2018-09-24T07:34:55.833Z,9.86
2018-09-24T07:37:30.021Z,9.95
2018-09-24T07:40:04.324Z,10.06
2018-09-24T07:42:39.342Z,10.18
2018-09-24T07:45:13.170Z,10.31
2018-09-24T07:47:47.045Z,10.44
2018-09-24T07:50:21.000Z,10.54
2018-09-24T07:52:55.018Z,10.67
2018-09-24T07:55:28.851Z,10.80
2018-09-24T07:58:02.801Z,10.93
2018-09-24T08:00:37.001Z,11.09
2018-09-24T08:03:11.145Z,11.19
2018-09-24T08:05:51.939Z,11.30
2018-09-24T08:08:25.968Z,11.45
2018-09-24T08:10:59.979Z,11.64
2018-09-24T08:13:34.021Z,11.83
2018-09-24T08:16:08.295Z,11.89
2018-09-24T08:18:42.585Z,11.81
2018-09-24T08:21:16.898Z,11.74
2018-09-24T08:23:51.173Z,11.64
2018-09-24T08:26:25.168Z,11.59
2018-09-24T08:28:59.217Z,11.55
2018-09-24T08:31:33.318Z,11.60
2018-09-24T08:34:07.205Z,11.74
2018-09-24T08:36:41.546Z,11.93
2018-09-24T08:39:15.653Z,12.07
2018-09-24T08:41:50.226Z,12.22
2018-09-24T08:44:24.511Z,12.39
2018-09-24T08:46:58.443Z,12.47
2018-09-24T08:49:32.682Z,12.55
2018-09-24T08:52:06.889Z,12.67
2018-09-24T08:54:41.185Z,12.77
2018-09-24T08:57:15.762Z,12.90
2018-09-24T08:59:50.136Z,13.05
2018-09-24T09:02:24.107Z,13.06
2018-09-24T09:04:57.900Z,13.11
2018-09-24T09:07:32.379Z,13.23
2018-09-24T09:10:06.479Z,13.35
2018-09-24T09:12:40.496Z,13.40
2018-09-24T09:15:14.768Z,13.44
2018-09-24T09:17:49.180Z,13.41
2018-09-24T09:20:23.193Z,13.47
2018-09-24T09:22:57.380Z,13.51
2018-09-24T09:25:31.266Z,13.44
2018-09-24T09:28:05.297Z,13.23
2018-09-24T09:30:39.469Z,12.99
2018-09-24T09:33:13.604Z,12.97
2018-09-24T09:35:47.705Z,12.86
2018-09-24T09:38:22.286Z,12.85
2018-09-24T09:40:56.806Z,12.72
2018-09-24T09:43:31.001Z,12.74
2018-09-24T09:46:12.022Z,12.85
2018-09-24T09:48:46.195Z,13.01
2018-09-24T09:51:20.416Z,13.24
2018-09-24T09:53:54.366Z,13.47
2018-09-24T09:56:28.182Z,13.68
2018-09-24T09:59:02.152Z,13.87
2018-09-24T10:01:36.406Z,14.06
2018-09-24T10:04:10.461Z,14.29
2018-09-24T10:06:44.480Z,14.41
2018-09-24T10:09:18.365Z,14.56
2018-09-24T10:11:52.550Z,14.81
2018-09-24T10:14:26.468Z,14.86
2018-09-24T10:17:01.013Z,14.76
2018-09-24T10:19:35.428Z,14.63
2018-09-24T10:22:09.659Z,14.80
2018-09-24T10:24:43.584Z,14.89
2018-09-24T10:27:17.607Z,14.98
2018-09-24T10:29:51.667Z,15.17
2018-09-24T10:32:26.065Z,15.31
2018-09-24T10:35:00.412Z,15.51
2018-09-24T10:37:34.316Z,15.71
2018-09-24T10:40:08.517Z,15.75
2018-09-24T10:42:42.709Z,15.85
2018-09-24T10:45:16.715Z,15.94
2018-09-24T10:47:50.645Z,15.74
2018-09-24T10:50:25.277Z,14.94
2018-09-24T10:53:00.251Z,14.11
2018-09-24T10:55:34.285Z,13.81
2018-09-24T10:58:08.346Z,13.70
2018-09-24T11:00:42.381Z,13.58
2018-09-24T11:03:16.910Z,13.60
2018-09-24T11:05:51.032Z,13.91
2018-09-24T11:08:25.315Z,14.26
2018-09-24T11:10:59.307Z,14.57
2018-09-24T11:13:33.667Z,14.87
2018-09-24T11:16:08.013Z,15.01
2018-09-24T11:18:42.723Z,15.01
2018-09-24T11:21:16.706Z,14.67
2018-09-24T11:23:50.633Z,14.11
2018-09-24T11:28:58.886Z,13.47
2018-09-24T11:31:32.836Z,13.42
2018-09-24T11:34:06.741Z,13.47
2018-09-24T11:36:40.864Z,13.24
2018-09-24T11:39:15.305Z,13.03
2018-09-24T11:41:49.593Z,13.07
2018-09-24T11:44:23.638Z,13.48
2018-09-24T11:46:57.682Z,13.91
2018-09-24T11:49:31.421Z,14.29
2018-09-24T11:52:05.651Z,14.56
2018-09-24T11:54:39.529Z,14.78
2018-09-24T11:57:13.485Z,15.03
2018-09-24T11:59:48.006Z,15.01
2018-09-24T12:02:22.148Z,14.32
2018-09-24T12:04:56.380Z,13.92
2018-09-24T12:07:30.674Z,13.57
2018-09-24T12:10:05.278Z,13.37
2018-09-24T12:12:39.259Z,13.16
2018-09-24T12:15:13.729Z,13.06
2018-09-24T12:17:47.884Z,13.03
2018-09-24T12:20:21.947Z,12.97
2018-09-24T12:22:56.156Z,12.95
2018-09-24T12:25:30.050Z,13.23
2018-09-24T12:28:04.081Z,13.48
2018-09-24T12:30:37.987Z,13.82
2018-09-24T12:33:12.387Z,14.27
2018-09-24T12:35:46.376Z,14.67
2018-09-24T12:38:20.292Z,15.07
2018-09-24T12:40:54.716Z,15.46
2018-09-24T12:43:28.960Z,15.77
2018-09-24T12:46:03.172Z,15.74
2018-09-24T12:48:37.551Z,15.47
2018-09-24T12:51:11.549Z,14.83
2018-09-24T12:53:45.596Z,14.46
2018-09-24T12:56:20.058Z,14.38
2018-09-24T12:58:54.447Z,14.22
2018-09-24T13:01:28.732Z,14.12
2018-09-24T13:04:02.684Z,13.84
2018-09-24T13:06:36.893Z,13.72
2018-09-24T13:09:12.784Z,14.03
2018-09-24T13:11:47.067Z,14.37
2018-09-24T13:14:20.928Z,14.73
2018-09-24T13:16:55.173Z,15.07
2018-09-24T13:19:29.153Z,15.48
2018-09-24T13:22:03.151Z,15.88
2018-09-24T13:24:37.363Z,16.06
2018-09-24T13:27:11.673Z,16.28
2018-09-24T13:29:45.457Z,16.33
2018-09-24T13:32:19.657Z,16.24
2018-09-24T13:34:53.804Z,16.13
2018-09-24T13:37:27.719Z,16.15
2018-09-24T13:40:02.157Z,16.31
2018-09-24T13:42:36.045Z,16.41
2018-09-24T13:45:10.216Z,16.43
2018-09-24T13:47:44.336Z,16.32
2018-09-24T13:50:18.186Z,16.50
2018-09-24T13:52:52.125Z,16.62
2018-09-24T13:55:27.434Z,16.38
2018-09-24T13:58:01.442Z,16.30
2018-09-24T14:00:35.328Z,16.11
2018-09-24T14:03:09.319Z,15.77
2018-09-24T14:05:43.230Z,15.09
2018-09-24T14:08:17.274Z,14.92
2018-09-24T14:10:51.552Z,14.92
2018-09-24T14:13:25.517Z,15.09
2018-09-24T14:15:59.404Z,15.40
2018-09-24T14:18:33.528Z,15.54
2018-09-24T14:21:07.933Z,15.79
2018-09-24T14:23:41.900Z,15.84
2018-09-24T14:26:15.811Z,15.97
2018-09-24T14:28:49.628Z,16.23
2018-09-24T14:31:24.060Z,16.48
2018-09-24T14:33:57.955Z,16.71
2018-09-24T14:36:32.269Z,16.94
2018-09-24T14:39:07.502Z,17.09
2018-09-24T14:41:41.770Z,16.89
2018-09-24T14:44:15.762Z,16.75
2018-09-24T14:46:49.813Z,16.41
2018-09-24T14:49:23.733Z,16.10
2018-09-24T14:51:58.242Z,15.17
2018-09-24T14:54:32.477Z,14.40
2018-09-24T14:57:06.753Z,14.03
2018-09-24T14:59:41.278Z,13.81
2018-09-24T15:02:15.522Z,13.78
2018-09-24T15:04:49.600Z,13.92
2018-09-24T15:07:23.690Z,13.93
2018-09-24T15:09:57.913Z,13.94
2018-09-24T15:12:32.022Z,13.90
2018-09-24T15:15:06.070Z,13.78
2018-09-24T15:17:40.189Z,13.71
2018-09-24T15:20:14.097Z,13.62
2018-09-24T15:22:48.614Z,13.51
2018-09-24T15:25:23.138Z,13.50
2018-09-24T15:27:57.248Z,13.53
2018-09-24T15:30:31.467Z,13.45
2018-09-24T15:33:05.352Z,13.48
2018-09-24T15:35:39.338Z,13.52
2018-09-24T15:38:13.301Z,13.53
2018-09-24T15:40:48.477Z,13.50
2018-09-24T15:43:22.454Z,13.48
2018-09-24T15:45:57.128Z,13.50
2018-09-24T15:48:31.278Z,13.48
2018-09-24T15:51:06.277Z,13.36
2018-09-24T15:53:40.226Z,13.37
2018-09-24T15:56:14.137Z,13.42
2018-09-24T15:58:47.996Z,13.43
2018-09-24T16:01:21.911Z,13.30
2018-09-24T16:03:55.876Z,13.32
2018-09-24T16:06:29.905Z,13.22
2018-09-24T16:09:03.775Z,13.19
2018-09-24T16:11:37.874Z,13.18
2018-09-24T16:14:12.179Z,13.06
2018-09-24T16:16:46.211Z,12.98
2018-09-24T16:19:20.528Z,12.96
2018-09-24T16:21:54.937Z,12.94
2018-09-24T16:24:29.138Z,12.93
2018-09-24T16:27:03.396Z,13.00
2018-09-24T16:29:37.736Z,12.90
2018-09-24T16:32:11.618Z,12.90
2018-09-24T16:34:45.662Z,12.88
2018-09-24T16:37:19.821Z,12.87
2018-09-24T16:39:53.885Z,12.82
2018-09-24T16:42:27.841Z,12.77
2018-09-24T16:45:02.577Z,12.72
2018-09-24T16:47:36.505Z,12.69
2018-09-24T16:50:10.912Z,12.66
2018-09-24T16:52:45.251Z,12.60
2018-09-24T16:55:19.419Z,12.58
2018-09-24T16:57:53.386Z,12.58
2018-09-24T17:00:27.588Z,12.58
2018-09-24T17:03:01.642Z,12.42
2018-09-24T17:05:35.931Z,12.39
2018-09-24T17:08:10.281Z,12.31
2018-09-24T17:10:45.726Z,12.18
2018-09-24T17:13:19.678Z,12.07
2018-09-24T17:15:53.632Z,12.01
2018-09-24T17:18:27.591Z,11.92
2018-09-24T17:21:02.021Z,11.91
2018-09-24T17:23:35.917Z,11.92
2018-09-24T17:26:09.917Z,11.92
2018-09-24T17:28:44.114Z,11.90
2018-09-24T17:31:18.470Z,11.89
2018-09-24T17:33:52.610Z,11.86
2018-09-24T17:36:26.677Z,11.84
2018-09-24T17:39:00.584Z,11.83
2018-09-24T17:41:34.832Z,11.78
2018-09-24T17:44:09.096Z,11.75
2018-09-24T17:46:43.296Z,11.73
2018-09-24T17:49:17.347Z,11.68
2018-09-24T17:51:51.340Z,11.64
2018-09-24T17:54:27.071Z,11.59
2018-09-24T17:57:01.365Z,11.57
2018-09-24T17:59:35.752Z,11.43
2018-09-24T18:02:09.766Z,11.36
2018-09-24T18:04:45.126Z,11.31
2018-09-24T18:07:19.198Z,11.31
2018-09-24T18:09:53.369Z,11.26
2018-09-24T18:12:27.384Z,11.26
2018-09-24T18:15:01.616Z,11.28
2018-09-24T18:17:37.846Z,11.24
2018-09-24T18:20:12.014Z,11.26
2018-09-24T18:22:45.909Z,11.25
2018-09-24T18:25:21.270Z,11.21
2018-09-24T18:27:56.257Z,11.17
2018-09-24T18:30:30.537Z,11.14
2018-09-24T18:33:06.014Z,11.09
2018-09-24T18:35:40.354Z,11.06
2018-09-24T18:38:15.365Z,11.03
2018-09-24T18:40:49.687Z,10.97
2018-09-24T18:43:24.350Z,10.94
2018-09-24T18:45:58.422Z,10.91
2018-09-24T18:48:32.395Z,10.88
2018-09-24T18:51:06.673Z,10.85
2018-09-24T18:53:40.645Z,10.83
2018-09-24T18:56:14.563Z,10.79
2018-09-24T18:58:48.782Z,10.76
2018-09-24T19:01:22.792Z,10.71
2018-09-24T19:03:57.087Z,10.69
2018-09-24T19:06:31.512Z,10.70
2018-09-24T19:09:05.365Z,10.68
2018-09-24T19:11:39.454Z,10.63
2018-09-24T19:14:13.477Z,10.63
2018-09-24T19:16:47.937Z,10.57
2018-09-24T19:19:22.065Z,10.54
2018-09-24T19:21:56.365Z,10.51
2018-09-24T19:24:30.312Z,10.47
2018-09-24T19:27:04.350Z,10.44
2018-09-24T19:29:38.386Z,10.39
2018-09-24T19:32:12.544Z,10.35
2018-09-24T19:34:46.637Z,10.33
2018-09-24T19:37:20.590Z,10.32
2018-09-24T19:39:55.050Z,10.31
2018-09-24T19:42:28.921Z,10.29
2018-09-24T19:45:03.161Z,10.29
2018-09-24T19:47:37.181Z,10.28
2018-09-24T19:50:12.241Z,10.24
2018-09-24T19:52:46.573Z,10.17
2018-09-24T19:55:20.531Z,10.15
2018-09-24T19:57:54.837Z,10.07
2018-09-24T20:00:28.961Z,10.00
2018-09-24T20:03:02.964Z,9.95
2018-09-24T20:05:37.278Z,9.93
2018-09-24T20:08:11.201Z,9.87
2018-09-24T20:10:45.117Z,9.82
2018-09-24T20:13:19.237Z,9.73
2018-09-24T20:15:53.278Z,9.63
2018-09-24T20:18:27.411Z,9.55
2018-09-24T20:21:01.331Z,9.50
2018-09-24T20:23:35.368Z,9.44
2018-09-24T20:26:09.477Z,9.39
2018-09-24T20:28:45.523Z,9.33
2018-09-24T20:31:20.805Z,9.28
2018-09-24T20:33:54.709Z,9.21
2018-09-24T20:36:29.103Z,9.16
2018-09-24T20:39:03.194Z,9.11
2018-09-24T20:41:37.117Z,9.09
2018-09-24T20:44:11.026Z,9.07
2018-09-24T20:46:45.058Z,9.09
2018-09-24T20:49:18.924Z,9.09
2018-09-24T20:51:53.179Z,9.08
2018-09-24T20:54:27.138Z,9.09
2018-09-24T20:57:01.456Z,9.08
2018-09-24T20:59:35.519Z,9.07
2018-09-24T21:02:09.870Z,9.09
2018-09-24T21:04:43.862Z,9.09
2018-09-24T21:07:17.875Z,9.07
2018-09-24T21:09:51.805Z,9.07
2018-09-24T21:12:25.783Z,9.07
2018-09-24T21:15:00.024Z,9.09
2018-09-24T21:17:34.014Z,9.09
2018-09-24T21:20:08.213Z,9.10
2018-09-24T21:22:42.555Z,9.10
2018-09-24T21:25:16.959Z,9.11
2018-09-24T21:27:51.492Z,9.12
2018-09-24T21:30:25.569Z,9.14
2018-09-24T21:32:59.759Z,9.16
2018-09-24T21:35:33.751Z,9.17
2018-09-24T21:38:08.020Z,9.19
2018-09-24T21:40:42.011Z,9.19
2018-09-24T21:43:16.229Z,9.18
2018-09-24T21:45:50.808Z,9.17
2018-09-24T21:48:25.029Z,9.17
2018-09-24T21:50:59.067Z,9.12
2018-09-24T21:53:33.259Z,9.10
2018-09-24T21:56:07.065Z,9.07
2018-09-24T21:58:41.232Z,9.03
2018-09-24T22:01:15.638Z,8.98
2018-09-24T22:03:49.916Z,8.94
2018-09-24T22:06:24.385Z,8.90
2018-09-24T22:08:58.242Z,8.85
2018-09-24T22:11:32.468Z,8.83
2018-09-24T22:14:06.779Z,8.81
2018-09-24T22:16:41.023Z,8.78
2018-09-24T22:19:15.525Z,8.77
2018-09-24T22:21:49.720Z,8.78
2018-09-24T22:24:23.913Z,8.81
2018-09-24T22:26:58.201Z,8.85
2018-09-24T22:29:32.255Z,8.86
2018-09-24T22:32:06.295Z,8.90
2018-09-24T22:34:40.498Z,8.94
2018-09-24T22:37:14.493Z,8.97
2018-09-24T22:39:48.996Z,8.98
2018-09-24T22:42:23.036Z,8.98
2018-09-24T22:44:57.339Z,9.00
2018-09-24T22:47:31.281Z,9.02
2018-09-24T22:50:05.562Z,9.02
2018-09-24T22:52:40.041Z,9.02
2018-09-24T22:55:13.940Z,9.01
2018-09-24T22:57:49.025Z,9.00
2018-09-24T23:00:23.015Z,8.98
2018-09-24T23:02:57.717Z,8.96
2018-09-24T23:05:32.183Z,8.95
2018-09-24T23:08:06.304Z,8.93
2018-09-24T23:10:40.657Z,8.90
2018-09-24T23:13:14.946Z,8.89
2018-09-24T23:15:49.297Z,8.87
2018-09-24T23:18:23.643Z,8.85
2018-09-24T23:20:57.625Z,8.81
2018-09-24T23:23:31.794Z,8.76
2018-09-24T23:26:06.110Z,8.71
2018-09-24T23:28:40.161Z,8.64
2018-09-24T23:31:14.122Z,8.61
2018-09-24T23:33:48.652Z,8.59
2018-09-24T23:36:23.021Z,8.55
2018-09-24T23:38:57.162Z,8.54
2018-09-24T23:41:31.657Z,8.49
2018-09-24T23:44:06.187Z,8.46
2018-09-24T23:46:40.553Z,8.44
2018-09-24T23:49:14.476Z,8.41
2018-09-24T23:51:48.623Z,8.39
2018-09-24T23:54:23.143Z,8.37
2018-09-24T23:56:57.286Z,8.37
2018-09-24T23:59:31.348Z,8.37
